Time;durP1;ratioP1;P1;durP2;ratioP2;P2;SDS_P1;SDS_P2;PMS_P1;PMS_P2;Temp;Humidity;BMP_temperature;BMP_pressure;BME280_temperature;BME280_humidity;BME280_pressure;Samples;Min_cycle;Max_cycle;Signal;HPM_P1;HPM_P2
2023/05/25 00:00:19;;;;;;;18.25;6.22;;;;;;;;;;4996874;28;20019;-88
2023/05/25 00:02:45;;;;;;;17.05;5.72;;;;;;;;;;4980362;28;20041;-90
2023/05/25 00:05:11;;;;;;;11.15;5.35;;;;;;;;;;4979437;28;20058;-90
2023/05/25 00:07:37;;;;;;;14.32;5.40;;;;;;;;;;4980378;28;20121;-89
2023/05/25 00:10:05;;;;;;;10.32;5.47;;;;;;;;;;4980058;28;20039;-88
2023/05/25 00:12:30;;;;;;;15.77;5.45;;;;;;;;;;4979937;28;20131;-89
2023/05/25 00:14:56;;;;;;;10.90;5.63;;;;;;;;;;4981652;28;20034;-88
2023/05/25 00:17:22;;;;;;;15.43;5.53;;;;;;;;;;4990370;28;20058;-89
2023/05/25 00:19:48;;;;;;;12.55;5.30;;;;;;;;;;4981544;28;20070;-89
2023/05/25 00:22:14;;;;;;;9.10;5.45;;;;;;;;;;4975787;28;20123;-89
2023/05/25 00:24:39;;;;;;;17.92;5.70;;;;;;;;;;4966881;28;20048;-88
2023/05/25 00:27:06;;;;;;;13.90;5.85;;;;;;;;;;4973644;28;20046;-88
2023/05/25 00:29:31;;;;;;;12.57;5.13;;;;;;;;;;4970004;28;20030;-90
2023/05/25 00:31:57;;;;;;;19.50;5.95;;;;;;;;;;5001357;28;20036;-90
2023/05/25 00:34:22;;;;;;;10.77;5.30;;;;;;;;;;5002685;28;20073;-90
2023/05/25 00:36:48;;;;;;;14.07;6.28;;;;;;;;;;4986694;28;20039;-89
2023/05/25 00:39:18;;;;;;;11.90;5.50;;;;;;;;;;4989731;28;20027;-89
2023/05/25 00:41:44;;;;;;;13.30;5.60;;;;;;;;;;4990945;28;20464;-89
2023/05/25 00:44:10;;;;;;;11.75;6.00;;;;;;;;;;4978973;28;20035;-88
2023/05/25 00:46:50;;;;;;;16.77;5.82;;;;;;;;;;4971997;28;20053;-90
2023/05/25 00:49:20;;;;;;;27.20;5.80;;;;;;;;;;4999228;28;20102;-89
2023/05/25 00:51:46;;;;;;;15.70;5.88;;;;;;;;;;4999928;28;20031;-88
2023/05/25 00:54:15;;;;;;;11.73;5.05;;;;;;;;;;4983400;28;20027;-89
2023/05/25 00:57:03;;;;;;;10.82;5.07;;;;;;;;;;4999936;28;20027;-89
2023/05/25 00:59:35;;;;;;;10.95;5.00;;;;;;;;;;4999663;28;20061;-89
2023/05/25 01:02:07;;;;;;;13.77;5.72;;;;;;;;;;4998078;28;20122;-89
2023/05/25 01:04:36;;;;;;;11.95;6.25;;;;;;;;;;4986101;28;20529;-89
2023/05/25 01:07:03;;;;;;;9.18;5.45;;;;;;;;;;5001810;28;20042;-89
2023/05/25 01:09:33;;;;;;;18.75;6.60;;;;;;;;;;5002113;28;20034;-89
2023/05/25 01:12:00;;;;;;;18.98;6.07;;;;;;;;;;4999208;28;20026;-89
2023/05/25 01:14:26;;;;;;;9.25;5.13;;;;;;;;;;4983963;28;20704;-89
2023/05/25 01:16:53;;;;;;;19.13;6.45;;;;;;;;;;4982873;28;20098;-89
2023/05/25 01:19:20;;;;;;;12.65;6.32;;;;;;;;;;4998823;28;20046;-88
2023/05/25 01:22:05;;;;;;;14.70;5.85;;;;;;;;;;4983425;28;20043;-90
2023/05/25 01:24:41;;;;;;;19.90;5.43;;;;;;;;;;4983003;28;20580;-89
2023/05/25 01:27:23;;;;;;;11.38;6.00;;;;;;;;;;4986396;28;20023;-89
2023/05/25 01:29:49;;;;;;;12.88;6.13;;;;;;;;;;5002992;28;20026;-88
2023/05/25 01:32:16;;;;;;;16.20;5.68;;;;;;;;;;5003370;28;20117;-90
2023/05/25 01:34:42;;;;;;;9.18;5.38;;;;;;;;;;4996248;28;20501;-89
2023/05/25 01:37:07;;;;;;;18.45;5.72;;;;;;;;;;4982827;28;20061;-90
2023/05/25 01:39:33;;;;;;;17.70;5.15;;;;;;;;;;4998533;28;20023;-89
2023/05/25 01:42:00;;;;;;;15.93;5.32;;;;;;;;;;4998888;28;20027;-90
2023/05/25 01:44:26;;;;;;;13.95;5.80;;;;;;;;;;5012435;28;20022;-89
2023/05/25 01:47:05;;;;;;;10.77;5.38;;;;;;;;;;4997158;28;20479;-88
2023/05/25 01:49:39;;;;;;;18.63;7.10;;;;;;;;;;5003867;28;20041;-88
2023/05/25 01:52:14;;;;;;;;;;;;;;;;;;4986148;28;20039;-89
2023/05/25 01:54:50;;;;;;;15.57;6.88;;;;;;;;;;4985850;28;19910;-89
2023/05/25 01:57:18;;;;;;;18.17;8.02;;;;;;;;;;4998176;28;20128;-87
2023/05/25 01:59:45;;;;;;;15.57;7.20;;;;;;;;;;5013284;28;20094;-89
2023/05/25 02:02:13;;;;;;;11.80;7.32;;;;;;;;;;4964669;28;1073052;-89
2023/05/25 02:04:40;;;;;;;13.23;7.45;;;;;;;;;;4986554;28;20064;-89
2023/05/25 02:07:06;;;;;;;17.92;7.10;;;;;;;;;;5001761;28;20050;-90
2023/05/25 02:09:31;;;;;;;18.70;8.07;;;;;;;;;;4996027;28;20034;-90
2023/05/25 02:11:56;;;;;;;12.32;7.50;;;;;;;;;;4988247;28;20025;-90
2023/05/25 02:14:22;;;;;;;14.52;8.02;;;;;;;;;;4995121;28;20027;-90
2023/05/25 02:16:47;;;;;;;21.33;7.97;;;;;;;;;;4971181;28;20046;-90
2023/05/25 02:19:13;;;;;;;16.80;8.85;;;;;;;;;;4984646;28;20042;-89
2023/05/25 02:21:40;;;;;;;15.68;7.18;;;;;;;;;;4981255;28;20035;-89
2023/05/25 02:24:08;;;;;;;15.30;8.73;;;;;;;;;;4989207;28;20027;-89
2023/05/25 02:26:34;;;;;;;14.27;9.00;;;;;;;;;;4998345;28;20026;-89
2023/05/25 02:29:00;;;;;;;15.35;8.00;;;;;;;;;;4997214;28;20050;-88
2023/05/25 02:31:26;;;;;;;14.98;8.80;;;;;;;;;;4982095;28;20155;-89
2023/05/25 02:33:52;;;;;;;15.75;8.43;;;;;;;;;;4989056;28;20046;-88
2023/05/25 02:36:17;;;;;;;16.80;8.10;;;;;;;;;;4977404;28;20018;-88
2023/05/25 02:38:43;;;;;;;14.77;8.55;;;;;;;;;;4992784;28;20528;-91
2023/05/25 02:41:08;;;;;;;19.63;8.48;;;;;;;;;;4992293;28;20045;-87
2023/05/25 02:43:33;;;;;;;14.52;7.95;;;;;;;;;;4997802;28;20095;-89
2023/05/25 02:45:59;;;;;;;15.90;9.23;;;;;;;;;;4973778;28;20104;-90
2023/05/25 02:48:24;;;;;;;17.50;8.60;;;;;;;;;;4984405;28;20066;-88
2023/05/25 02:50:50;;;;;;;15.30;9.40;;;;;;;;;;4987082;28;20022;-89
2023/05/25 02:53:15;;;;;;;18.45;9.50;;;;;;;;;;4998768;28;20390;-89
2023/05/25 02:55:42;;;;;;;16.13;8.90;;;;;;;;;;4985401;28;20151;-89
2023/05/25 02:58:07;;;;;;;14.85;8.88;;;;;;;;;;5000325;28;20110;-89
2023/05/25 03:00:33;;;;;;;15.32;8.70;;;;;;;;;;4994493;28;20035;-88
2023/05/25 03:02:58;;;;;;;16.27;9.40;;;;;;;;;;5001637;28;20489;-89
2023/05/25 03:05:23;;;;;;;16.30;8.85;;;;;;;;;;4985458;28;20030;-89
2023/05/25 03:07:49;;;;;;;15.48;8.80;;;;;;;;;;4984609;28;20070;-91
2023/05/25 03:10:14;;;;;;;16.35;8.95;;;;;;;;;;5002127;23;20050;-79
2023/05/25 03:12:40;;;;;;;18.17;8.38;;;;;;;;;;4977497;28;20046;-79
2023/05/25 03:15:05;;;;;;;15.70;7.63;;;;;;;;;;4976097;28;20022;-82
2023/05/25 03:17:31;;;;;;;21.45;9.35;;;;;;;;;;4983228;28;20481;-80
2023/05/25 03:19:56;;;;;;;22.30;9.80;;;;;;;;;;4974325;28;20094;-79
2023/05/25 03:22:21;;;;;;;16.25;8.38;;;;;;;;;;4977054;28;20039;-80
2023/05/25 03:24:48;;;;;;;19.17;9.55;;;;;;;;;;4983473;28;20383;-80
2023/05/25 03:27:13;;;;;;;13.63;8.57;;;;;;;;;;4980569;28;20050;-80
2023/05/25 03:29:38;;;;;;;17.55;8.30;;;;;;;;;;4983439;28;20500;-80
2023/05/25 03:32:04;;;;;;;20.98;9.65;;;;;;;;;;4982590;28;20046;-80
2023/05/25 03:34:33;;;;;;;14.75;8.70;;;;;;;;;;4982418;28;20035;-79
2023/05/25 03:36:58;;;;;;;15.02;9.02;;;;;;;;;;4979467;28;20523;-80
2023/05/25 03:39:24;;;;;;;12.77;8.38;;;;;;;;;;4978273;28;20046;-80
2023/05/25 03:41:50;;;;;;;15.20;8.00;;;;;;;;;;4982497;28;20031;-78
2023/05/25 03:44:15;;;;;;;15.18;9.00;;;;;;;;;;4984089;28;20035;-79
2023/05/25 03:46:40;;;;;;;20.85;9.73;;;;;;;;;;4980483;28;20038;-80
2023/05/25 03:49:05;;;;;;;14.95;8.80;;;;;;;;;;4979435;28;20054;-79
2023/05/25 03:51:31;;;;;;;15.70;8.82;;;;;;;;;;4976598;28;20038;-80
2023/05/25 03:53:56;;;;;;;20.15;8.90;;;;;;;;;;4982622;28;20064;-79
2023/05/25 03:56:22;;;;;;;17.15;8.85;;;;;;;;;;4982795;28;20041;-80
2023/05/25 03:58:47;;;;;;;17.25;9.60;;;;;;;;;;4978467;28;20147;-79
2023/05/25 04:01:13;;;;;;;20.10;9.45;;;;;;;;;;4980125;28;20062;-80
2023/05/25 04:03:39;;;;;;;15.90;9.68;;;;;;;;;;4980883;28;20055;-80
2023/05/25 04:06:04;;;;;;;16.67;8.85;;;;;;;;;;4979149;28;20110;-79
2023/05/25 04:08:29;;;;;;;18.27;8.88;;;;;;;;;;4981059;28;20094;-79
2023/05/25 04:10:56;;;;;;;12.30;8.77;;;;;;;;;;4983645;28;20066;-78
2023/05/25 04:13:21;;;;;;;22.35;8.82;;;;;;;;;;4982795;28;20037;-79
2023/05/25 04:15:46;;;;;;;18.67;8.85;;;;;;;;;;4984114;28;20098;-80
2023/05/25 04:18:12;;;;;;;21.40;8.38;;;;;;;;;;4984506;28;20019;-80
2023/05/25 04:20:37;;;;;;;19.40;8.25;;;;;;;;;;4989007;28;20030;-79
2023/05/25 04:23:02;;;;;;;13.57;9.10;;;;;;;;;;4983009;28;20053;-80
2023/05/25 04:25:28;;;;;;;17.23;8.85;;;;;;;;;;4985834;28;20666;-79
2023/05/25 04:27:55;;;;;;;16.33;9.18;;;;;;;;;;4977957;28;20047;-80
2023/05/25 04:30:21;;;;;;;16.65;9.65;;;;;;;;;;4980734;28;20030;-80
2023/05/25 04:32:46;;;;;;;16.98;9.52;;;;;;;;;;4988780;28;20086;-80
2023/05/25 04:35:13;;;;;;;19.27;9.38;;;;;;;;;;4985924;28;20043;-81
2023/05/25 04:37:39;;;;;;;23.05;10.05;;;;;;;;;;4984933;28;20097;-79
2023/05/25 04:40:10;;;;;;;15.50;9.70;;;;;;;;;;4985595;28;20038;-80
2023/05/25 04:42:36;;;;;;;17.42;9.93;;;;;;;;;;4984111;28;20117;-80
2023/05/25 04:45:06;;;;;;;17.15;9.90;;;;;;;;;;4984232;28;20346;-80
2023/05/25 04:47:33;;;;;;;18.95;10.20;;;;;;;;;;4980496;28;20035;-79
2023/05/25 04:49:58;;;;;;;21.00;9.30;;;;;;;;;;4982240;28;20035;-80
2023/05/25 04:52:24;;;;;;;15.70;9.32;;;;;;;;;;4981794;28;20049;-80
2023/05/25 04:54:52;;;;;;;18.02;10.00;;;;;;;;;;4979334;28;20058;-81
2023/05/25 04:57:17;;;;;;;18.30;10.18;;;;;;;;;;4978664;28;20081;-80
2023/05/25 04:59:43;;;;;;;15.43;8.23;;;;;;;;;;4979582;28;20433;-81
2023/05/25 05:02:08;;;;;;;20.85;10.85;;;;;;;;;;4993003;28;20042;-80
2023/05/25 05:04:33;;;;;;;14.13;9.68;;;;;;;;;;4979624;28;20046;-78
2023/05/25 05:06:59;;;;;;;20.58;9.80;;;;;;;;;;4976447;28;20039;-80
2023/05/25 05:09:25;;;;;;;19.27;10.80;;;;;;;;;;4977626;28;20146;-79
2023/05/25 05:11:50;;;;;;;16.10;9.68;;;;;;;;;;4986216;28;20523;-79
2023/05/25 05:14:15;;;;;;;15.45;9.45;;;;;;;;;;4986186;28;20049;-79
2023/05/25 05:16:41;;;;;;;19.45;8.88;;;;;;;;;;4985411;28;20037;-79
2023/05/25 05:19:06;;;;;;;16.52;9.57;;;;;;;;;;4981792;28;20086;-79
2023/05/25 05:21:32;;;;;;;13.63;8.68;;;;;;;;;;4984808;28;20058;-79
2023/05/25 05:23:57;;;;;;;15.60;9.10;;;;;;;;;;4975130;28;20132;-79
2023/05/25 05:26:23;;;;;;;20.42;9.02;;;;;;;;;;4981278;28;20039;-78
2023/05/25 05:28:48;;;;;;;14.55;9.02;;;;;;;;;;4976730;28;20039;-79
2023/05/25 05:31:16;;;;;;;18.17;8.55;;;;;;;;;;4985783;28;20038;-79
2023/05/25 05:33:41;;;;;;;15.40;9.25;;;;;;;;;;4985264;28;20096;-79
2023/05/25 05:36:07;;;;;;;10.57;5.32;;;;;;;;;;4983939;28;20050;-78
2023/05/25 05:38:33;;;;;;;20.58;9.75;;;;;;;;;;4985440;28;20038;-79
2023/05/25 05:40:58;;;;;;;22.90;10.35;;;;;;;;;;4981462;28;20074;-79
2023/05/25 05:43:23;;;;;;;15.80;9.20;;;;;;;;;;4984554;28;20520;-79
2023/05/25 05:45:49;;;;;;;17.02;9.63;;;;;;;;;;4984687;28;20043;-79
2023/05/25 05:48:14;;;;;;;17.65;7.07;;;;;;;;;;4983811;28;20034;-79
2023/05/25 05:50:40;;;;;;;27.45;9.88;;;;;;;;;;4986690;28;20030;-78
2023/05/25 05:53:05;;;;;;;17.52;9.73;;;;;;;;;;4976529;28;20050;-78
2023/05/25 05:55:33;;;;;;;19.38;9.38;;;;;;;;;;4976044;28;20038;-79
2023/05/25 05:57:59;;;;;;;17.77;8.93;;;;;;;;;;4982373;28;20038;-80
2023/05/25 06:00:24;;;;;;;28.30;8.52;;;;;;;;;;4986522;28;20061;-80
2023/05/25 06:02:50;;;;;;;13.27;7.53;;;;;;;;;;4982041;28;20073;-80
2023/05/25 06:05:15;;;;;;;18.35;8.93;;;;;;;;;;4979600;28;20066;-79
2023/05/25 06:07:41;;;;;;;27.85;11.60;;;;;;;;;;4988307;28;20038;-78
2023/05/25 06:10:07;;;;;;;17.48;8.18;;;;;;;;;;4991629;28;20432;-77
2023/05/25 06:12:32;;;;;;;14.35;8.27;;;;;;;;;;4988716;28;20049;-80
2023/05/25 06:14:57;;;;;;;9.15;5.63;;;;;;;;;;4984349;28;20026;-79
2023/05/25 06:17:23;;;;;;;14.13;8.27;;;;;;;;;;4974599;28;20168;-80
2023/05/25 06:19:49;;;;;;;15.15;8.02;;;;;;;;;;4974062;28;20027;-80
2023/05/25 06:22:14;;;;;;;10.40;7.53;;;;;;;;;;4965439;28;20040;-79
2023/05/25 06:24:40;;;;;;;11.07;6.75;;;;;;;;;;4974207;28;20038;-80
2023/05/25 06:27:05;;;;;;;15.95;8.00;;;;;;;;;;4972471;28;20031;-79
2023/05/25 06:29:30;;;;;;;14.32;8.77;;;;;;;;;;4971109;28;20470;-80
2023/05/25 06:31:56;;;;;;;18.55;8.80;;;;;;;;;;4971506;28;20038;-79
2023/05/25 06:34:21;;;;;;;14.10;8.73;;;;;;;;;;4974567;28;20066;-80
2023/05/25 06:36:47;;;;;;;12.45;7.90;;;;;;;;;;4974525;28;20030;-79
2023/05/25 06:39:12;;;;;;;8.48;6.32;;;;;;;;;;4973148;28;20058;-80
2023/05/25 06:41:39;;;;;;;9.30;5.80;;;;;;;;;;4973111;28;20022;-79
2023/05/25 06:44:05;;;;;;;9.30;5.90;;;;;;;;;;4976318;28;20035;-79
2023/05/25 06:46:31;;;;;;;7.70;5.45;;;;;;;;;;4972502;28;20039;-79
2023/05/25 06:48:58;;;;;;;8.18;5.93;;;;;;;;;;4984494;28;20051;-78
2023/05/25 06:51:26;;;;;;;8.57;5.30;;;;;;;;;;4983833;28;20061;-78
2023/05/25 06:53:51;;;;;;;5.80;4.15;;;;;;;;;;4978686;28;20079;-78
2023/05/25 06:56:16;;;;;;;5.75;4.75;;;;;;;;;;4976082;28;20042;-78
2023/05/25 06:58:42;;;;;;;7.53;5.13;;;;;;;;;;4973441;28;20154;-78
2023/05/25 07:01:07;;;;;;;7.57;5.32;;;;;;;;;;4976274;28;20114;-79
2023/05/25 07:03:32;;;;;;;5.47;4.15;;;;;;;;;;4978618;28;20034;-78
2023/05/25 07:05:58;;;;;;;8.57;5.90;;;;;;;;;;4983723;28;20481;-79
2023/05/25 07:08:23;;;;;;;8.35;5.93;;;;;;;;;;4981879;28;20019;-79
2023/05/25 07:10:49;;;;;;;10.68;5.70;;;;;;;;;;4983138;28;20034;-79
2023/05/25 07:13:14;;;;;;;5.85;4.47;;;;;;;;;;4980157;28;20078;-78
2023/05/25 07:15:40;;;;;;;9.50;6.28;;;;;;;;;;4982834;28;20070;-79
2023/05/25 07:18:05;;;;;;;7.55;5.75;;;;;;;;;;4965078;28;20050;-79
2023/05/25 07:20:32;;;;;;;6.75;5.30;;;;;;;;;;4974448;28;20026;-79
2023/05/25 07:22:58;;;;;;;6.47;5.05;;;;;;;;;;4975416;28;20035;-80
2023/05/25 07:25:23;;;;;;;7.00;5.07;;;;;;;;;;4973660;28;20449;-80
2023/05/25 07:27:49;;;;;;;8.80;6.57;;;;;;;;;;4971383;28;20493;-79
2023/05/25 07:30:14;;;;;;;8.15;5.55;;;;;;;;;;4973230;28;20033;-80
2023/05/25 07:32:40;;;;;;;8.25;6.55;;;;;;;;;;4972926;28;20050;-80
2023/05/25 07:35:05;;;;;;;8.93;6.43;;;;;;;;;;4971821;28;20110;-80
2023/05/25 07:37:31;;;;;;;11.60;6.65;;;;;;;;;;4970583;28;20035;-80
2023/05/25 07:39:56;;;;;;;8.95;6.05;;;;;;;;;;4975691;28;20085;-80
2023/05/25 07:42:21;;;;;;;8.13;6.10;;;;;;;;;;4974711;28;21752;-79
2023/05/25 07:44:47;;;;;;;8.80;6.13;;;;;;;;;;4974225;28;20073;-80
2023/05/25 07:47:13;;;;;;;8.73;6.10;;;;;;;;;;4968912;28;20050;-80
2023/05/25 07:49:38;;;;;;;9.18;6.65;;;;;;;;;;4971754;28;20045;-79
2023/05/25 07:52:04;;;;;;;7.97;5.75;;;;;;;;;;4975953;28;20038;-81
2023/05/25 07:54:30;;;;;;;7.82;5.78;;;;;;;;;;4972661;28;20039;-80
2023/05/25 07:56:55;;;;;;;7.05;4.70;;;;;;;;;;4986788;28;20503;-80
2023/05/25 07:59:21;;;;;;;6.30;4.97;;;;;;;;;;5000909;28;20061;-79
2023/05/25 08:01:46;;;;;;;7.85;6.32;;;;;;;;;;4993859;28;20038;-80
2023/05/25 08:04:11;;;;;;;8.63;5.45;;;;;;;;;;4993138;28;20058;-80
2023/05/25 08:06:37;;;;;;;6.10;4.97;;;;;;;;;;4996246;28;20062;-79
2023/05/25 08:09:03;;;;;;;8.50;5.68;;;;;;;;;;4987182;28;20122;-79
2023/05/25 08:11:30;;;;;;;7.05;5.70;;;;;;;;;;4988811;28;20045;-79
2023/05/25 08:13:55;;;;;;;9.40;5.18;;;;;;;;;;4988295;28;20034;-79
2023/05/25 08:16:20;;;;;;;13.85;6.53;;;;;;;;;;4987059;28;20038;-79
2023/05/25 08:18:46;;;;;;;11.23;5.80;;;;;;;;;;4977602;28;20090;-79
2023/05/25 08:21:12;;;;;;;7.82;5.03;;;;;;;;;;4990183;28;20026;-79
2023/05/25 08:23:41;;;;;;;8.82;5.63;;;;;;;;;;4984743;28;20039;-79
2023/05/25 08:26:06;;;;;;;10.55;5.38;;;;;;;;;;4976296;28;20027;-79
2023/05/25 08:28:32;;;;;;;5.55;4.95;;;;;;;;;;5004869;28;20042;-79
2023/05/25 08:30:57;;;;;;;7.78;5.57;;;;;;;;;;4988868;28;20026;-79
2023/05/25 08:33:22;;;;;;;6.85;5.05;;;;;;;;;;4989719;28;20504;-79
2023/05/25 08:35:49;;;;;;;8.00;5.85;;;;;;;;;;4991113;28;20091;-79
2023/05/25 08:38:14;;;;;;;7.63;6.82;;;;;;;;;;4988668;28;20030;-79
2023/05/25 08:40:41;;;;;;;6.78;4.72;;;;;;;;;;4982098;28;20031;-80
2023/05/25 08:43:06;;;;;;;8.00;4.85;;;;;;;;;;4986466;28;20042;-80
2023/05/25 08:45:32;;;;;;;6.72;4.90;;;;;;;;;;4982207;28;20039;-79
2023/05/25 08:47:58;;;;;;;6.32;4.55;;;;;;;;;;4983127;28;20074;-79
2023/05/25 08:50:26;;;;;;;7.78;5.40;;;;;;;;;;4979432;28;20039;-79
2023/05/25 08:52:54;;;;;;;6.10;4.10;;;;;;;;;;4988435;28;20038;-79
2023/05/25 08:55:21;;;;;;;7.28;5.00;;;;;;;;;;4980291;28;20037;-79
2023/05/25 08:58:00;;;;;;;6.13;4.90;;;;;;;;;;4982781;28;20035;-79
2023/05/25 09:00:33;;;;;;;8.55;5.80;;;;;;;;;;4980878;28;20042;-79
2023/05/25 09:03:05;;;;;;;6.38;4.97;;;;;;;;;;5004376;28;20022;-79
2023/05/25 09:05:32;;;;;;;6.35;5.43;;;;;;;;;;4978264;28;20043;-79
2023/05/25 09:07:57;;;;;;;8.70;5.50;;;;;;;;;;4983235;28;20031;-79
2023/05/25 09:10:23;;;;;;;7.45;5.40;;;;;;;;;;4981279;28;20053;-78
2023/05/25 09:12:50;;;;;;;8.30;5.75;;;;;;;;;;4989181;28;20026;-79
2023/05/25 09:15:15;;;;;;;9.55;5.70;;;;;;;;;;4988230;28;20020;-79
2023/05/25 09:17:41;;;;;;;6.10;4.93;;;;;;;;;;4985874;28;20033;-79
2023/05/25 09:20:09;;;;;;;6.47;5.15;;;;;;;;;;4973462;28;20058;-79
2023/05/25 09:22:35;;;;;;;6.50;5.60;;;;;;;;;;4990357;28;20027;-79
2023/05/25 09:25:05;;;;;;;7.90;5.78;;;;;;;;;;4990156;28;20123;-79
2023/05/25 09:27:34;;;;;;;9.82;5.47;;;;;;;;;;4981410;28;20030;-79
2023/05/25 09:30:01;;;;;;;7.43;5.50;;;;;;;;;;4990074;28;20026;-79
2023/05/25 09:32:26;;;;;;;6.57;5.55;;;;;;;;;;4980650;28;20035;-79
2023/05/25 09:34:54;;;;;;;7.00;6.07;;;;;;;;;;4989151;28;20099;-80
2023/05/25 09:37:20;;;;;;;8.02;6.60;;;;;;;;;;4986878;28;20113;-79
2023/05/25 09:39:46;;;;;;;6.70;5.57;;;;;;;;;;4982769;28;20045;-79
2023/05/25 09:42:12;;;;;;;9.23;5.78;;;;;;;;;;4980840;28;20038;-79
2023/05/25 09:44:41;;;;;;;8.60;5.57;;;;;;;;;;4989672;28;20022;-79
2023/05/25 09:47:07;;;;;;;7.30;5.28;;;;;;;;;;4983111;28;20032;-79
2023/05/25 09:49:34;;;;;;;7.60;5.32;;;;;;;;;;4987929;28;20042;-79
2023/05/25 09:52:00;;;;;;;8.75;5.25;;;;;;;;;;4980504;28;20034;-79
2023/05/25 09:54:26;;;;;;;6.10;5.20;;;;;;;;;;4979517;28;20039;-79
2023/05/25 09:56:51;;;;;;;7.15;5.50;;;;;;;;;;4996679;28;20023;-79
2023/05/25 09:59:16;;;;;;;8.38;5.75;;;;;;;;;;4987449;28;20605;-79
2023/05/25 10:01:43;;;;;;;8.18;5.32;;;;;;;;;;4987040;28;20027;-79
2023/05/25 10:04:09;;;;;;;8.48;5.50;;;;;;;;;;4987080;28;20038;-79
2023/05/25 10:06:34;;;;;;;6.55;5.38;;;;;;;;;;4987245;28;20027;-79
2023/05/25 10:09:00;;;;;;;9.60;6.60;;;;;;;;;;5003026;28;20074;-79
2023/05/25 10:11:28;;;;;;;9.15;6.22;;;;;;;;;;4986979;28;20030;-79
2023/05/25 10:13:54;;;;;;;7.80;6.22;;;;;;;;;;4985700;28;20035;-80
2023/05/25 10:16:25;;;;;;;6.82;5.65;;;;;;;;;;4977624;28;20036;-79
2023/05/25 10:19:13;;;;;;;11.00;6.55;;;;;;;;;;4974885;28;20042;-79
2023/05/25 10:21:40;;;;;;;8.73;6.07;;;;;;;;;;4979631;28;20055;-79
2023/05/25 10:24:13;;;;;;;8.98;6.22;;;;;;;;;;4987550;28;20023;-79
2023/05/25 10:26:41;;;;;;;7.47;5.73;;;;;;;;;;4969756;28;20023;-79
2023/05/25 10:29:08;;;;;;;12.73;6.95;;;;;;;;;;4982959;28;20676;-79
2023/05/25 10:31:36;;;;;;;12.20;6.78;;;;;;;;;;4978007;28;20038;-80
2023/05/25 10:34:02;;;;;;;9.60;7.45;;;;;;;;;;4986539;28;20038;-79
2023/05/25 10:36:29;;;;;;;8.10;6.22;;;;;;;;;;4979700;28;20035;-79
2023/05/25 10:38:55;;;;;;;9.05;6.35;;;;;;;;;;4981886;28;20027;-79
2023/05/25 10:41:20;;;;;;;8.20;6.18;;;;;;;;;;4984787;28;20062;-79
2023/05/25 10:43:46;;;;;;;10.55;6.38;;;;;;;;;;4977624;28;20039;-79
2023/05/25 10:46:13;;;;;;;8.82;6.60;;;;;;;;;;4986809;28;20033;-79
2023/05/25 10:48:45;;;;;;;8.15;6.22;;;;;;;;;;4985723;28;20039;-79
2023/05/25 10:51:10;;;;;;;7.47;5.28;;;;;;;;;;4995009;28;20027;-80
2023/05/25 10:53:35;;;;;;;10.20;6.90;;;;;;;;;;4978753;28;20025;-79
2023/05/25 10:56:03;;;;;;;12.32;6.47;;;;;;;;;;4984268;28;20078;-79
2023/05/25 10:58:29;;;;;;;9.07;6.60;;;;;;;;;;4978581;28;20046;-79
2023/05/25 11:01:06;;;;;;;8.02;6.28;;;;;;;;;;4996927;28;20039;-80
2023/05/25 11:03:43;;;;;;;9.18;6.90;;;;;;;;;;4984459;28;20061;-79
2023/05/25 11:06:16;;;;;;;8.40;6.35;;;;;;;;;;4987435;28;20023;-79
2023/05/25 11:08:57;;;;;;;11.02;7.20;;;;;;;;;;4976655;28;20006;-79
2023/05/25 11:11:41;;;;;;;10.80;6.88;;;;;;;;;;4975447;28;20039;-80
2023/05/25 11:14:28;;;;;;;9.70;6.97;;;;;;;;;;4976518;28;20711;-79
2023/05/25 11:17:11;;;;;;;11.75;7.25;;;;;;;;;;4979592;28;20039;-79
2023/05/25 11:19:45;;;;;;;12.05;7.50;;;;;;;;;;4978616;28;20039;-79
2023/05/25 11:22:29;;;;;;;9.98;6.85;;;;;;;;;;4979710;28;20406;-79
2023/05/25 11:24:56;;;;;;;10.38;7.28;;;;;;;;;;4979997;28;20038;-79
2023/05/25 11:27:23;;;;;;;12.75;7.93;;;;;;;;;;4986770;28;20015;-79
2023/05/25 11:29:50;;;;;;;10.82;7.07;;;;;;;;;;5002481;28;20018;-79
2023/05/25 11:32:15;;;;;;;12.43;7.97;;;;;;;;;;4980958;28;20407;-79
2023/05/25 11:34:45;;;;;;;11.27;7.72;;;;;;;;;;4986037;28;20031;-79
2023/05/25 11:37:12;;;;;;;12.98;7.80;;;;;;;;;;4988178;28;20034;-80
2023/05/25 11:39:38;;;;;;;14.02;8.70;;;;;;;;;;4982012;28;20090;-80
2023/05/25 11:42:05;;;;;;;16.27;8.75;;;;;;;;;;4979773;28;20023;-79
2023/05/25 11:44:32;;;;;;;9.10;7.57;;;;;;;;;;4986991;28;20019;-79
2023/05/25 11:47:07;;;;;;;11.10;7.30;;;;;;;;;;4976613;28;20065;-79
2023/05/25 11:49:32;;;;;;;13.40;7.82;;;;;;;;;;4975110;28;20039;-80
2023/05/25 11:51:57;;;;;;;10.10;7.70;;;;;;;;;;4975901;28;20053;-79
2023/05/25 11:57:53;;;;;;;10.60;8.30;;;;;;;;;;4990533;28;20034;-79
2023/05/25 12:00:24;;;;;;;10.48;7.57;;;;;;;;;;5003743;28;20113;-78
2023/05/25 12:02:49;;;;;;;11.70;7.68;;;;;;;;;;5019567;28;20054;-79
2023/05/25 12:05:15;;;;;;;14.75;8.38;;;;;;;;;;5004331;28;20042;-79
2023/05/25 12:07:45;;;;;;;11.27;7.97;;;;;;;;;;5000538;28;20405;-79
2023/05/25 12:10:12;;;;;;;9.93;8.07;;;;;;;;;;5000542;28;20054;-78
2023/05/25 12:12:45;;;;;;;14.45;8.35;;;;;;;;;;5002392;28;20046;-79
2023/05/25 12:15:19;;;;;;;9.75;7.00;;;;;;;;;;5002487;28;20038;-80
2023/05/25 12:17:45;;;;;;;10.10;6.80;;;;;;;;;;4988942;28;20030;-80
2023/05/25 12:20:12;;;;;;;14.90;7.82;;;;;;;;;;4978985;28;20038;-80
2023/05/25 12:22:38;;;;;;;14.73;8.90;;;;;;;;;;4978861;28;20041;-79
2023/05/25 12:25:06;;;;;;;10.77;8.35;;;;;;;;;;4984649;28;20104;-80
2023/05/25 12:27:31;;;;;;;11.70;7.75;;;;;;;;;;4996067;28;20038;-78
2023/05/25 12:29:58;;;;;;;9.15;7.57;;;;;;;;;;4979298;28;20043;-80
2023/05/25 12:32:23;;;;;;;16.10;8.30;;;;;;;;;;4976967;28;20031;-78
2023/05/25 12:34:48;;;;;;;11.20;7.78;;;;;;;;;;4979162;28;20292;-80
2023/05/25 12:37:20;;;;;;;9.75;7.10;;;;;;;;;;4994896;28;20037;-80
2023/05/25 12:39:46;;;;;;;12.82;7.72;;;;;;;;;;4992273;28;20026;-80
2023/05/25 12:42:15;;;;;;;9.93;7.57;;;;;;;;;;5007831;28;20030;-80
2023/05/25 12:44:42;;;;;;;11.27;7.80;;;;;;;;;;4998162;28;20031;-81
2023/05/25 12:47:14;;;;;;;12.15;7.60;;;;;;;;;;4993834;28;20042;-81
2023/05/25 12:49:41;;;;;;;10.13;7.43;;;;;;;;;;5008079;28;20065;-81
2023/05/25 12:52:08;;;;;;;10.63;7.40;;;;;;;;;;4999539;28;20158;-81
2023/05/25 12:54:44;;;;;;;9.60;7.38;;;;;;;;;;4998196;28;20039;-80
2023/05/25 12:57:14;;;;;;;10.75;7.63;;;;;;;;;;4991544;28;20042;-80
2023/05/25 12:59:42;;;;;;;9.57;7.32;;;;;;;;;;4996485;28;20058;-80
2023/05/25 13:02:07;;;;;;;12.63;7.88;;;;;;;;;;4988575;28;20607;-80
2023/05/25 13:04:34;;;;;;;9.57;7.72;;;;;;;;;;5003432;28;20039;-79
2023/05/25 13:07:00;;;;;;;8.50;7.15;;;;;;;;;;5002931;28;20031;-80
2023/05/25 13:09:25;;;;;;;9.73;7.40;;;;;;;;;;4997386;28;20045;-78
2023/05/25 13:11:55;;;;;;;9.80;7.65;;;;;;;;;;4996292;28;20035;-81
2023/05/25 13:14:21;;;;;;;10.25;6.70;;;;;;;;;;4987570;28;20038;-80
2023/05/25 13:16:47;;;;;;;11.23;7.65;;;;;;;;;;4981338;28;20031;-80
2023/05/25 13:19:13;;;;;;;14.85;7.78;;;;;;;;;;4992887;28;20034;-79
2023/05/25 13:21:39;;;;;;;12.52;8.50;;;;;;;;;;4977726;28;20042;-79
2023/05/25 13:24:04;;;;;;;11.13;7.63;;;;;;;;;;4988966;28;20074;-79
2023/05/25 13:26:29;;;;;;;11.23;7.40;;;;;;;;;;4988841;28;20445;-79
2023/05/25 13:28:55;;;;;;;12.82;6.97;;;;;;;;;;4988925;28;20089;-80
2023/05/25 13:31:20;;;;;;;12.82;6.97;;;;;;;;;;4981534;28;20043;-80
2023/05/25 13:33:45;;;;;;;12.82;7.30;;;;;;;;;;4988507;28;20042;-80
2023/05/25 13:36:10;;;;;;;12.82;7.00;;;;;;;;;;4987586;28;20034;-77
2023/05/25 13:38:37;;;;;;;13.25;6.50;;;;;;;;;;4979833;28;20325;-79
2023/05/25 13:41:02;;;;;;;11.25;6.38;;;;;;;;;;4983205;28;20051;-81
2023/05/25 13:43:28;;;;;;;15.27;7.22;;;;;;;;;;4985295;28;20098;-80
2023/05/25 13:45:54;;;;;;;8.52;7.10;;;;;;;;;;4987484;28;20031;-80
2023/05/25 13:48:20;;;;;;;8.88;6.55;;;;;;;;;;4988399;28;20019;-80
2023/05/25 13:50:46;;;;;;;8.50;6.10;;;;;;;;;;4985560;28;20126;-80
2023/05/25 13:53:12;;;;;;;10.48;7.70;;;;;;;;;;4982760;28;20054;-80
2023/05/25 13:55:38;;;;;;;12.80;6.82;;;;;;;;;;4987556;28;20085;-80
2023/05/25 13:58:04;;;;;;;9.75;6.68;;;;;;;;;;4988783;28;20058;-79
2023/05/25 14:00:29;;;;;;;7.47;6.43;;;;;;;;;;4980228;28;20110;-80
2023/05/25 14:02:54;;;;;;;10.50;7.28;;;;;;;;;;4988389;28;20019;-79
2023/05/25 14:05:20;;;;;;;8.88;6.05;;;;;;;;;;4973996;28;20074;-80
2023/05/25 14:07:46;;;;;;;9.30;5.93;;;;;;;;;;4985341;28;20039;-80
2023/05/25 14:10:12;;;;;;;10.30;5.97;;;;;;;;;;5003071;28;20086;-79
2023/05/25 14:12:38;;;;;;;10.38;6.90;;;;;;;;;;4982016;28;20042;-79
2023/05/25 14:15:04;;;;;;;9.88;7.05;;;;;;;;;;4978336;28;20065;-80
2023/05/25 14:17:29;;;;;;;11.88;7.30;;;;;;;;;;4981866;28;20034;-80
2023/05/25 14:19:54;;;;;;;11.80;6.93;;;;;;;;;;4988131;28;20501;-81
2023/05/25 14:22:20;;;;;;;11.52;6.75;;;;;;;;;;4988033;28;20517;-80
2023/05/25 14:24:45;;;;;;;10.48;6.57;;;;;;;;;;4987302;28;20065;-81
2023/05/25 14:27:10;;;;;;;10.07;5.80;;;;;;;;;;4980355;28;20605;-81
2023/05/25 14:29:36;;;;;;;8.88;6.78;;;;;;;;;;4979911;28;20034;-80
2023/05/25 14:32:01;;;;;;;9.23;6.97;;;;;;;;;;4987474;28;20031;-80
2023/05/25 14:34:27;;;;;;;10.63;6.53;;;;;;;;;;4979685;28;20071;-79